This is the latest recevied weather packets stored in our database for station/object K3PPP. If no packets are shown the sender has not sent any weather packets the latest 10 day(s).
| Time | Temp. | Humidity | Pressure | Rain* | Wind** | Luminosity | Snow |
|---|---|---|---|---|---|---|---|
| 1777971987 | 15° C | 65% | 1010.8 hPa | 0 mm | - | 0 W/m² | - |
| 1777971685 | 15° C | 64% | 1010.9 hPa | 0 mm | - | 0 W/m² | - |
| 1777971382 | 15° C | 64% | 1010.8 hPa | 0 mm | - | 0 W/m² | - |
| 1777971081 | 15° C | 64% | 1010.8 hPa | 0 mm | - | 0 W/m² | - |
| 1777970778 | 15° C | 66% | 1010.7 hPa | 0 mm | - | 0 W/m² | - |
| 1777970476 | 14.44° C | 65% | 1010.7 hPa | 0 mm | - | 0 W/m² | - |
| 1777970174 | 14.44° C | 67% | 1010.6 hPa | 0 mm | - | 0 W/m² | - |
| 1777969870 | 14.44° C | 67% | 1010.7 hPa | 0 mm | - | 0 W/m² | - |
| 1777969565 | 14.44° C | 67% | 1010.6 hPa | 0 mm | - | 0 W/m² | - |
| 1777969263 | 14.44° C | 68% | 1010.6 hPa | 0 mm | - | 0 W/m² | - |
| 1777968959 | 14.44° C | 67% | 1010.4 hPa | 0 mm | - | 0 W/m² | - |
| 1777968656 | 14.44° C | 68% | 1010.4 hPa | 0 mm | - | 0 W/m² | - |
| 1777968352 | 13.33° C | 73% | 1010.2 hPa | 0 mm | - | 0 W/m² | - |
| 1777968049 | 12.78° C | 78% | 1010.7 hPa | 0 mm | - | 0 W/m² | - |
| 1777967745 | 13.33° C | 76% | 1010.7 hPa | 1.78 mm | - | 0 W/m² | - |
| 1777967442 | 14.44° C | 71% | 1010.8 hPa | 1.78 mm | - | 0 W/m² | - |
| 1777967139 | 15° C | 66% | 1010.7 hPa | 0 mm | - | 0 W/m² | - |
| 1777966836 | 14.44° C | 66% | 1010.6 hPa | 0 mm | - | 0 W/m² | - |
| 1777966533 | 14.44° C | 66% | 1010.4 hPa | 0 mm | - | 0 W/m² | - |
| 1777966232 | 14.44° C | 66% | 1010.4 hPa | 0 mm | - | 0 W/m² | - |
| 1777965927 | 14.44° C | 66% | 1010.6 hPa | 0 mm | - | 0 W/m² | - |
| 1777965624 | 14.44° C | 67% | 1010.3 hPa | 0 mm | - | 0 W/m² | - |
| 1777965319 | 13.89° C | 66% | 1010 hPa | 0 mm | - | 0 W/m² | - |
| 1777965018 | 13.89° C | 67% | 1010.1 hPa | 0 mm | - | 0 W/m² | - |
| 1777964715 | 13.89° C | 69% | 1010 hPa | 0 mm | - | 0 W/m² | - |
* Rain latest hour (hover to see other rain measurements)
** Current wind speed in m/s (hover to see current wind gust speed)